sensor_id;sensor_type;location;lat;lon;timestamp;P1;durP1;ratioP1;P2;durP2;ratioP2
18308;SDS011;9280;50.276;18.650;2022-08-01T00:02:36;6.80;;;4.37;;
18308;SDS011;9280;50.276;18.650;2022-08-01T00:05:22;5.77;;;4.13;;
18308;SDS011;9280;50.276;18.650;2022-08-01T00:08:08;5.83;;;4.47;;
18308;SDS011;9280;50.276;18.650;2022-08-01T00:10:56;7.40;;;4.00;;
18308;SDS011;9280;50.276;18.650;2022-08-01T00:13:42;5.97;;;4.00;;
18308;SDS011;9280;50.276;18.650;2022-08-01T00:16:28;5.57;;;3.73;;
18308;SDS011;9280;50.276;18.650;2022-08-01T00:19:14;3.77;;;3.33;;
18308;SDS011;9280;50.276;18.650;2022-08-01T00:22:00;7.27;;;4.07;;
18308;SDS011;9280;50.276;18.650;2022-08-01T00:24:46;4.70;;;4.20;;
18308;SDS011;9280;50.276;18.650;2022-08-01T00:27:33;12.77;;;4.10;;
18308;SDS011;9280;50.276;18.650;2022-08-01T00:30:19;4.00;;;3.60;;
18308;SDS011;9280;50.276;18.650;2022-08-01T00:33:05;7.57;;;4.20;;
18308;SDS011;9280;50.276;18.650;2022-08-01T00:35:51;4.73;;;3.97;;
18308;SDS011;9280;50.276;18.650;2022-08-01T00:38:37;5.00;;;4.10;;
18308;SDS011;9280;50.276;18.650;2022-08-01T00:41:23;4.53;;;3.77;;
18308;SDS011;9280;50.276;18.650;2022-08-01T00:44:10;6.13;;;3.60;;
18308;SDS011;9280;50.276;18.650;2022-08-01T00:46:56;7.87;;;4.73;;
18308;SDS011;9280;50.276;18.650;2022-08-01T00:49:42;10.27;;;4.40;;
18308;SDS011;9280;50.276;18.650;2022-08-01T00:52:28;10.90;;;4.43;;
18308;SDS011;9280;50.276;18.650;2022-08-01T00:55:14;6.70;;;3.90;;
18308;SDS011;9280;50.276;18.650;2022-08-01T00:58:02;9.50;;;4.60;;
18308;SDS011;9280;50.276;18.650;2022-08-01T01:00:49;7.13;;;4.20;;
18308;SDS011;9280;50.276;18.650;2022-08-01T01:03:35;4.87;;;4.10;;
18308;SDS011;9280;50.276;18.650;2022-08-01T01:06:30;8.17;;;4.20;;
18308;SDS011;9280;50.276;18.650;2022-08-01T01:09:29;7.67;;;4.57;;
18308;SDS011;9280;50.276;18.650;2022-08-01T01:12:25;5.10;;;4.63;;
18308;SDS011;9280;50.276;18.650;2022-08-01T01:15:15;6.00;;;4.53;;
18308;SDS011;9280;50.276;18.650;2022-08-01T01:18:09;11.23;;;4.67;;
18308;SDS011;9280;50.276;18.650;2022-08-01T01:20:58;5.50;;;4.97;;
18308;SDS011;9280;50.276;18.650;2022-08-01T01:23:57;6.80;;;4.80;;
18308;SDS011;9280;50.276;18.650;2022-08-01T01:26:53;6.67;;;5.50;;
18308;SDS011;9280;50.276;18.650;2022-08-01T01:29:48;7.07;;;5.53;;
18308;SDS011;9280;50.276;18.650;2022-08-01T01:32:38;5.97;;;4.93;;
18308;SDS011;9280;50.276;18.650;2022-08-01T01:35:28;8.70;;;5.40;;
18308;SDS011;9280;50.276;18.650;2022-08-01T01:38:17;6.60;;;4.97;;
18308;SDS011;9280;50.276;18.650;2022-08-01T01:41:06;8.13;;;4.87;;
18308;SDS011;9280;50.276;18.650;2022-08-01T01:43:53;6.20;;;5.20;;
18308;SDS011;9280;50.276;18.650;2022-08-01T01:46:41;6.23;;;4.73;;
18308;SDS011;9280;50.276;18.650;2022-08-01T01:49:28;10.17;;;5.90;;
18308;SDS011;9280;50.276;18.650;2022-08-01T01:52:17;10.00;;;7.03;;
18308;SDS011;9280;50.276;18.650;2022-08-01T01:55:05;10.10;;;7.80;;
18308;SDS011;9280;50.276;18.650;2022-08-01T01:57:52;12.10;;;9.27;;
18308;SDS011;9280;50.276;18.650;2022-08-01T02:00:41;9.10;;;8.10;;
18308;SDS011;9280;50.276;18.650;2022-08-01T02:03:30;13.40;;;9.67;;
18308;SDS011;9280;50.276;18.650;2022-08-01T02:06:16;13.47;;;9.67;;
18308;SDS011;9280;50.276;18.650;2022-08-01T02:09:03;14.57;;;9.67;;
18308;SDS011;9280;50.276;18.650;2022-08-01T02:11:50;14.63;;;10.93;;
18308;SDS011;9280;50.276;18.650;2022-08-01T02:14:38;13.53;;;11.23;;
18308;SDS011;9280;50.276;18.650;2022-08-01T02:17:25;13.63;;;10.47;;
18308;SDS011;9280;50.276;18.650;2022-08-01T02:20:13;15.33;;;10.00;;
18308;SDS011;9280;50.276;18.650;2022-08-01T02:23:02;16.30;;;10.50;;
18308;SDS011;9280;50.276;18.650;2022-08-01T02:25:52;19.33;;;12.77;;
18308;SDS011;9280;50.276;18.650;2022-08-01T02:28:41;18.00;;;13.60;;
18308;SDS011;9280;50.276;18.650;2022-08-01T02:31:34;21.63;;;14.43;;
18308;SDS011;9280;50.276;18.650;2022-08-01T02:34:23;20.10;;;14.10;;
18308;SDS011;9280;50.276;18.650;2022-08-01T02:37:17;22.37;;;15.17;;
18308;SDS011;9280;50.276;18.650;2022-08-01T02:40:06;22.47;;;15.80;;
18308;SDS011;9280;50.276;18.650;2022-08-01T02:42:56;23.93;;;15.67;;
18308;SDS011;9280;50.276;18.650;2022-08-01T02:45:45;44.50;;;15.07;;
18308;SDS011;9280;50.276;18.650;2022-08-01T02:48:35;27.53;;;12.30;;
18308;SDS011;9280;50.276;18.650;2022-08-01T02:51:23;25.77;;;12.87;;
18308;SDS011;9280;50.276;18.650;2022-08-01T02:54:12;21.10;;;13.67;;
18308;SDS011;9280;50.276;18.650;2022-08-01T02:57:00;26.70;;;16.50;;
18308;SDS011;9280;50.276;18.650;2022-08-01T02:59:48;24.77;;;16.37;;
18308;SDS011;9280;50.276;18.650;2022-08-01T03:02:35;23.53;;;16.83;;
18308;SDS011;9280;50.276;18.650;2022-08-01T03:05:24;20.63;;;15.40;;
18308;SDS011;9280;50.276;18.650;2022-08-01T03:08:11;18.70;;;14.80;;
18308;SDS011;9280;50.276;18.650;2022-08-01T03:11:00;25.53;;;15.97;;
18308;SDS011;9280;50.276;18.650;2022-08-01T03:13:48;23.73;;;16.60;;
18308;SDS011;9280;50.276;18.650;2022-08-01T03:16:36;22.50;;;15.20;;
18308;SDS011;9280;50.276;18.650;2022-08-01T03:19:25;18.53;;;14.53;;
18308;SDS011;9280;50.276;18.650;2022-08-01T03:22:12;16.77;;;12.90;;
18308;SDS011;9280;50.276;18.650;2022-08-01T03:24:59;18.87;;;12.83;;
18308;SDS011;9280;50.276;18.650;2022-08-01T03:27:50;18.40;;;13.13;;
18308;SDS011;9280;50.276;18.650;2022-08-01T03:30:39;22.93;;;14.63;;
18308;SDS011;9280;50.276;18.650;2022-08-01T03:33:27;23.17;;;14.60;;
18308;SDS011;9280;50.276;18.650;2022-08-01T03:36:14;22.63;;;16.43;;
18308;SDS011;9280;50.276;18.650;2022-08-01T03:39:03;23.00;;;14.73;;
18308;SDS011;9280;50.276;18.650;2022-08-01T03:41:54;19.43;;;14.63;;
18308;SDS011;9280;50.276;18.650;2022-08-01T03:44:47;19.87;;;14.13;;
18308;SDS011;9280;50.276;18.650;2022-08-01T03:47:40;25.53;;;13.77;;
18308;SDS011;9280;50.276;18.650;2022-08-01T03:50:29;20.40;;;14.27;;
18308;SDS011;9280;50.276;18.650;2022-08-01T03:53:18;19.00;;;13.27;;
18308;SDS011;9280;50.276;18.650;2022-08-01T03:56:06;21.73;;;13.77;;
18308;SDS011;9280;50.276;18.650;2022-08-01T03:58:54;17.00;;;12.80;;
18308;SDS011;9280;50.276;18.650;2022-08-01T04:01:41;21.27;;;14.20;;
18308;SDS011;9280;50.276;18.650;2022-08-01T04:04:29;17.30;;;13.87;;
18308;SDS011;9280;50.276;18.650;2022-08-01T04:07:22;19.13;;;14.00;;
18308;SDS011;9280;50.276;18.650;2022-08-01T04:10:10;20.77;;;15.23;;
18308;SDS011;9280;50.276;18.650;2022-08-01T04:12:56;25.27;;;17.50;;
18308;SDS011;9280;50.276;18.650;2022-08-01T04:15:42;29.83;;;16.70;;
18308;SDS011;9280;50.276;18.650;2022-08-01T04:18:29;27.57;;;15.93;;
18308;SDS011;9280;50.276;18.650;2022-08-01T04:21:17;24.67;;;16.43;;
18308;SDS011;9280;50.276;18.650;2022-08-01T04:24:07;24.27;;;16.10;;
18308;SDS011;9280;50.276;18.650;2022-08-01T04:26:56;22.17;;;16.17;;
18308;SDS011;9280;50.276;18.650;2022-08-01T04:29:45;24.57;;;15.43;;
18308;SDS011;9280;50.276;18.650;2022-08-01T04:32:35;25.13;;;15.87;;
18308;SDS011;9280;50.276;18.650;2022-08-01T04:35:25;22.07;;;16.13;;
18308;SDS011;9280;50.276;18.650;2022-08-01T04:38:15;25.30;;;15.87;;
18308;SDS011;9280;50.276;18.650;2022-08-01T04:41:05;25.57;;;16.20;;
18308;SDS011;9280;50.276;18.650;2022-08-01T04:43:55;29.67;;;17.00;;
18308;SDS011;9280;50.276;18.650;2022-08-01T04:46:43;25.43;;;15.30;;
18308;SDS011;9280;50.276;18.650;2022-08-01T04:49:30;21.37;;;15.07;;
18308;SDS011;9280;50.276;18.650;2022-08-01T04:52:18;23.77;;;15.47;;
18308;SDS011;9280;50.276;18.650;2022-08-01T04:55:05;21.37;;;14.07;;
18308;SDS011;9280;50.276;18.650;2022-08-01T04:57:51;29.57;;;15.73;;
18308;SDS011;9280;50.276;18.650;2022-08-01T05:00:38;21.30;;;13.70;;
18308;SDS011;9280;50.276;18.650;2022-08-01T05:03:23;20.67;;;13.93;;
18308;SDS011;9280;50.276;18.650;2022-08-01T05:06:10;22.67;;;13.90;;
18308;SDS011;9280;50.276;18.650;2022-08-01T05:08:57;29.47;;;13.00;;
18308;SDS011;9280;50.276;18.650;2022-08-01T05:11:43;18.83;;;12.40;;
18308;SDS011;9280;50.276;18.650;2022-08-01T05:14:29;19.77;;;12.17;;
18308;SDS011;9280;50.276;18.650;2022-08-01T05:17:16;23.23;;;11.77;;
18308;SDS011;9280;50.276;18.650;2022-08-01T05:20:02;20.17;;;10.70;;
18308;SDS011;9280;50.276;18.650;2022-08-01T05:22:50;15.73;;;10.87;;
18308;SDS011;9280;50.276;18.650;2022-08-01T05:25:37;15.80;;;10.60;;
18308;SDS011;9280;50.276;18.650;2022-08-01T05:28:24;13.30;;;9.27;;
18308;SDS011;9280;50.276;18.650;2022-08-01T05:31:09;12.47;;;8.03;;
18308;SDS011;9280;50.276;18.650;2022-08-01T05:33:55;15.93;;;8.80;;
18308;SDS011;9280;50.276;18.650;2022-08-01T05:36:41;13.27;;;8.47;;
18308;SDS011;9280;50.276;18.650;2022-08-01T05:39:27;12.30;;;8.03;;
18308;SDS011;9280;50.276;18.650;2022-08-01T05:42:15;19.03;;;8.00;;
18308;SDS011;9280;50.276;18.650;2022-08-01T05:45:01;16.33;;;8.80;;
18308;SDS011;9280;50.276;18.650;2022-08-01T05:47:48;15.07;;;9.13;;
18308;SDS011;9280;50.276;18.650;2022-08-01T05:50:33;12.57;;;9.80;;
18308;SDS011;9280;50.276;18.650;2022-08-01T05:53:20;19.33;;;9.23;;
18308;SDS011;9280;50.276;18.650;2022-08-01T05:56:05;17.40;;;9.97;;
18308;SDS011;9280;50.276;18.650;2022-08-01T05:58:53;21.97;;;10.00;;
18308;SDS011;9280;50.276;18.650;2022-08-01T06:01:39;13.60;;;8.87;;
18308;SDS011;9280;50.276;18.650;2022-08-01T06:04:25;14.67;;;9.37;;
18308;SDS011;9280;50.276;18.650;2022-08-01T06:07:11;13.03;;;8.00;;
18308;SDS011;9280;50.276;18.650;2022-08-01T06:09:57;12.23;;;8.07;;
18308;SDS011;9280;50.276;18.650;2022-08-01T06:12:43;18.07;;;6.97;;
18308;SDS011;9280;50.276;18.650;2022-08-01T06:15:30;14.33;;;8.33;;
18308;SDS011;9280;50.276;18.650;2022-08-01T06:18:16;11.90;;;7.63;;
18308;SDS011;9280;50.276;18.650;2022-08-01T06:21:03;11.97;;;7.57;;
18308;SDS011;9280;50.276;18.650;2022-08-01T06:23:49;17.97;;;7.60;;
18308;SDS011;9280;50.276;18.650;2022-08-01T06:26:35;9.03;;;6.30;;
18308;SDS011;9280;50.276;18.650;2022-08-01T06:29:20;9.53;;;6.30;;
18308;SDS011;9280;50.276;18.650;2022-08-01T06:32:08;10.20;;;6.57;;
18308;SDS011;9280;50.276;18.650;2022-08-01T06:34:54;6.23;;;5.03;;
18308;SDS011;9280;50.276;18.650;2022-08-01T06:37:41;6.67;;;5.33;;
18308;SDS011;9280;50.276;18.650;2022-08-01T06:40:29;11.87;;;5.57;;
18308;SDS011;9280;50.276;18.650;2022-08-01T06:43:15;9.10;;;5.10;;
18308;SDS011;9280;50.276;18.650;2022-08-01T06:46:02;6.50;;;5.20;;
18308;SDS011;9280;50.276;18.650;2022-08-01T06:48:50;13.53;;;4.97;;
18308;SDS011;9280;50.276;18.650;2022-08-01T06:51:37;7.13;;;5.77;;
18308;SDS011;9280;50.276;18.650;2022-08-01T06:54:23;10.07;;;5.10;;
18308;SDS011;9280;50.276;18.650;2022-08-01T06:57:08;6.53;;;5.13;;
18308;SDS011;9280;50.276;18.650;2022-08-01T06:59:55;6.93;;;5.00;;
18308;SDS011;9280;50.276;18.650;2022-08-01T07:02:42;11.03;;;5.70;;
18308;SDS011;9280;50.276;18.650;2022-08-01T07:05:29;8.73;;;4.80;;
18308;SDS011;9280;50.276;18.650;2022-08-01T07:08:15;11.20;;;5.33;;
18308;SDS011;9280;50.276;18.650;2022-08-01T07:11:01;7.53;;;5.27;;
18308;SDS011;9280;50.276;18.650;2022-08-01T07:13:47;9.90;;;4.73;;
18308;SDS011;9280;50.276;18.650;2022-08-01T07:16:33;6.50;;;4.70;;
18308;SDS011;9280;50.276;18.650;2022-08-01T07:19:19;8.00;;;4.20;;
18308;SDS011;9280;50.276;18.650;2022-08-01T07:22:07;9.70;;;4.43;;
18308;SDS011;9280;50.276;18.650;2022-08-01T07:24:53;7.67;;;4.43;;
18308;SDS011;9280;50.276;18.650;2022-08-01T07:27:38;11.03;;;4.30;;
18308;SDS011;9280;50.276;18.650;2022-08-01T07:30:24;5.10;;;4.40;;
18308;SDS011;9280;50.276;18.650;2022-08-01T07:33:10;5.47;;;4.03;;
18308;SDS011;9280;50.276;18.650;2022-08-01T07:35:57;7.13;;;4.33;;
18308;SDS011;9280;50.276;18.650;2022-08-01T07:38:44;11.03;;;4.50;;
18308;SDS011;9280;50.276;18.650;2022-08-01T07:41:30;6.77;;;4.73;;
18308;SDS011;9280;50.276;18.650;2022-08-01T07:44:16;8.57;;;3.93;;
18308;SDS011;9280;50.276;18.650;2022-08-01T07:47:02;5.37;;;3.90;;
18308;SDS011;9280;50.276;18.650;2022-08-01T07:49:48;7.70;;;4.17;;
18308;SDS011;9280;50.276;18.650;2022-08-01T07:52:34;4.87;;;3.73;;
18308;SDS011;9280;50.276;18.650;2022-08-01T07:55:22;11.83;;;4.20;;
18308;SDS011;9280;50.276;18.650;2022-08-01T07:58:08;18.80;;;4.73;;
18308;SDS011;9280;50.276;18.650;2022-08-01T08:00:54;17.27;;;4.03;;
18308;SDS011;9280;50.276;18.650;2022-08-01T08:03:39;6.37;;;4.07;;
18308;SDS011;9280;50.276;18.650;2022-08-01T08:06:25;7.20;;;4.10;;
18308;SDS011;9280;50.276;18.650;2022-08-01T08:09:11;5.03;;;4.30;;
18308;SDS011;9280;50.276;18.650;2022-08-01T08:11:58;8.03;;;4.30;;
18308;SDS011;9280;50.276;18.650;2022-08-01T08:14:44;13.07;;;5.13;;
18308;SDS011;9280;50.276;18.650;2022-08-01T08:17:30;7.27;;;4.47;;
18308;SDS011;9280;50.276;18.650;2022-08-01T08:20:17;7.63;;;4.57;;
18308;SDS011;9280;50.276;18.650;2022-08-01T08:23:08;8.00;;;4.93;;
18308;SDS011;9280;50.276;18.650;2022-08-01T08:26:08;10.13;;;4.50;;
18308;SDS011;9280;50.276;18.650;2022-08-01T08:28:55;5.97;;;4.33;;
18308;SDS011;9280;50.276;18.650;2022-08-01T08:31:41;6.03;;;4.27;;
18308;SDS011;9280;50.276;18.650;2022-08-01T08:34:28;9.37;;;4.77;;
18308;SDS011;9280;50.276;18.650;2022-08-01T08:37:14;9.47;;;5.23;;
18308;SDS011;9280;50.276;18.650;2022-08-01T08:40:01;12.53;;;4.90;;
18308;SDS011;9280;50.276;18.650;2022-08-01T08:42:47;10.63;;;5.30;;
18308;SDS011;9280;50.276;18.650;2022-08-01T08:45:35;18.00;;;5.30;;
18308;SDS011;9280;50.276;18.650;2022-08-01T08:48:21;12.40;;;5.10;;
18308;SDS011;9280;50.276;18.650;2022-08-01T08:51:08;19.40;;;5.70;;
18308;SDS011;9280;50.276;18.650;2022-08-01T08:53:55;7.43;;;4.87;;
18308;SDS011;9280;50.276;18.650;2022-08-01T08:56:42;9.47;;;4.83;;
18308;SDS011;9280;50.276;18.650;2022-08-01T08:59:30;10.30;;;4.60;;
18308;SDS011;9280;50.276;18.650;2022-08-01T09:02:18;10.77;;;5.20;;
18308;SDS011;9280;50.276;18.650;2022-08-01T09:05:05;7.40;;;5.00;;
18308;SDS011;9280;50.276;18.650;2022-08-01T09:07:52;12.17;;;5.23;;
18308;SDS011;9280;50.276;18.650;2022-08-01T09:10:38;13.17;;;5.07;;
18308;SDS011;9280;50.276;18.650;2022-08-01T09:13:24;9.67;;;5.40;;
18308;SDS011;9280;50.276;18.650;2022-08-01T09:16:15;6.57;;;4.93;;
18308;SDS011;9280;50.276;18.650;2022-08-01T09:19:07;8.77;;;5.07;;
18308;SDS011;9280;50.276;18.650;2022-08-01T09:21:56;12.07;;;4.97;;
18308;SDS011;9280;50.276;18.650;2022-08-01T09:24:42;11.33;;;6.10;;
18308;SDS011;9280;50.276;18.650;2022-08-01T09:27:43;10.73;;;5.30;;
18308;SDS011;9280;50.276;18.650;2022-08-01T09:30:29;8.60;;;5.17;;
18308;SDS011;9280;50.276;18.650;2022-08-01T09:33:23;13.47;;;5.63;;
18308;SDS011;9280;50.276;18.650;2022-08-01T09:36:10;8.70;;;4.80;;
18308;SDS011;9280;50.276;18.650;2022-08-01T09:38:57;8.27;;;5.07;;
18308;SDS011;9280;50.276;18.650;2022-08-01T09:41:58;9.00;;;4.67;;
18308;SDS011;9280;50.276;18.650;2022-08-01T09:44:45;6.63;;;5.20;;
18308;SDS011;9280;50.276;18.650;2022-08-01T09:47:36;9.30;;;5.40;;
18308;SDS011;9280;50.276;18.650;2022-08-01T09:50:23;8.73;;;5.30;;
18308;SDS011;9280;50.276;18.650;2022-08-01T09:53:26;6.90;;;5.23;;
18308;SDS011;9280;50.276;18.650;2022-08-01T09:56:24;9.23;;;4.90;;
18308;SDS011;9280;50.276;18.650;2022-08-01T09:59:10;9.87;;;5.47;;
18308;SDS011;9280;50.276;18.650;2022-08-01T10:01:56;8.30;;;5.00;;
18308;SDS011;9280;50.276;18.650;2022-08-01T10:04:46;7.30;;;4.93;;
18308;SDS011;9280;50.276;18.650;2022-08-01T10:07:32;5.93;;;4.90;;
18308;SDS011;9280;50.276;18.650;2022-08-01T10:10:20;9.87;;;5.63;;
18308;SDS011;9280;50.276;18.650;2022-08-01T10:13:06;6.57;;;5.43;;
18308;SDS011;9280;50.276;18.650;2022-08-01T10:15:53;9.83;;;5.77;;
18308;SDS011;9280;50.276;18.650;2022-08-01T10:18:40;12.97;;;5.87;;
18308;SDS011;9280;50.276;18.650;2022-08-01T10:21:29;10.47;;;5.97;;
18308;SDS011;9280;50.276;18.650;2022-08-01T10:24:18;8.17;;;5.27;;
18308;SDS011;9280;50.276;18.650;2022-08-01T10:27:07;6.80;;;5.20;;
18308;SDS011;9280;50.276;18.650;2022-08-01T10:29:55;10.27;;;5.30;;
18308;SDS011;9280;50.276;18.650;2022-08-01T10:32:47;9.43;;;5.23;;
18308;SDS011;9280;50.276;18.650;2022-08-01T10:35:35;5.90;;;5.17;;
18308;SDS011;9280;50.276;18.650;2022-08-01T10:38:23;9.23;;;4.90;;
18308;SDS011;9280;50.276;18.650;2022-08-01T10:41:09;7.80;;;5.17;;
18308;SDS011;9280;50.276;18.650;2022-08-01T10:44:00;6.97;;;5.40;;
18308;SDS011;9280;50.276;18.650;2022-08-01T10:46:48;6.43;;;5.30;;
18308;SDS011;9280;50.276;18.650;2022-08-01T10:49:40;7.33;;;5.40;;
18308;SDS011;9280;50.276;18.650;2022-08-01T10:52:30;6.17;;;5.40;;
18308;SDS011;9280;50.276;18.650;2022-08-01T10:55:16;7.30;;;5.63;;
18308;SDS011;9280;50.276;18.650;2022-08-01T10:58:01;14.70;;;6.17;;
18308;SDS011;9280;50.276;18.650;2022-08-01T11:04:05;10.47;;;6.00;;
18308;SDS011;9280;50.276;18.650;2022-08-01T11:07:02;8.77;;;5.83;;
18308;SDS011;9280;50.276;18.650;2022-08-01T11:09:58;7.23;;;4.93;;
18308;SDS011;9280;50.276;18.650;2022-08-01T11:12:48;9.07;;;5.00;;
18308;SDS011;9280;50.276;18.650;2022-08-01T11:15:34;11.90;;;5.60;;
18308;SDS011;9280;50.276;18.650;2022-08-01T11:18:30;12.23;;;4.97;;
18308;SDS011;9280;50.276;18.650;2022-08-01T11:21:17;9.07;;;5.10;;
18308;SDS011;9280;50.276;18.650;2022-08-01T11:24:03;14.40;;;5.87;;
18308;SDS011;9280;50.276;18.650;2022-08-01T11:30:24;9.20;;;5.30;;
18308;SDS011;9280;50.276;18.650;2022-08-01T11:33:11;8.30;;;5.37;;
18308;SDS011;9280;50.276;18.650;2022-08-01T11:36:18;12.73;;;6.00;;
18308;SDS011;9280;50.276;18.650;2022-08-01T11:39:13;10.20;;;5.30;;
18308;SDS011;9280;50.276;18.650;2022-08-01T11:45:05;8.53;;;5.03;;
18308;SDS011;9280;50.276;18.650;2022-08-01T11:47:53;12.43;;;5.77;;
18308;SDS011;9280;50.276;18.650;2022-08-01T11:50:40;7.77;;;6.30;;
18308;SDS011;9280;50.276;18.650;2022-08-01T11:53:28;13.27;;;6.03;;
18308;SDS011;9280;50.276;18.650;2022-08-01T11:56:17;6.83;;;5.40;;
18308;SDS011;9280;50.276;18.650;2022-08-01T11:59:04;8.80;;;5.77;;
18308;SDS011;9280;50.276;18.650;2022-08-01T12:01:51;7.43;;;5.60;;
18308;SDS011;9280;50.276;18.650;2022-08-01T12:04:44;7.40;;;5.73;;
18308;SDS011;9280;50.276;18.650;2022-08-01T12:07:32;6.70;;;5.37;;
18308;SDS011;9280;50.276;18.650;2022-08-01T12:10:20;11.77;;;5.60;;
18308;SDS011;9280;50.276;18.650;2022-08-01T12:13:07;5.17;;;4.63;;
18308;SDS011;9280;50.276;18.650;2022-08-01T12:15:53;9.10;;;5.50;;
18308;SDS011;9280;50.276;18.650;2022-08-01T12:18:40;7.50;;;4.77;;
18308;SDS011;9280;50.276;18.650;2022-08-01T12:21:27;7.17;;;4.87;;
18308;SDS011;9280;50.276;18.650;2022-08-01T12:24:13;7.77;;;4.93;;
18308;SDS011;9280;50.276;18.650;2022-08-01T12:27:09;10.90;;;4.67;;
18308;SDS011;9280;50.276;18.650;2022-08-01T12:29:56;6.87;;;5.13;;
18308;SDS011;9280;50.276;18.650;2022-08-01T12:32:43;7.53;;;5.00;;
18308;SDS011;9280;50.276;18.650;2022-08-01T12:35:31;8.17;;;4.23;;
18308;SDS011;9280;50.276;18.650;2022-08-01T12:38:19;7.83;;;4.30;;
18308;SDS011;9280;50.276;18.650;2022-08-01T12:41:06;6.73;;;5.20;;
18308;SDS011;9280;50.276;18.650;2022-08-01T12:43:57;7.70;;;5.20;;
18308;SDS011;9280;50.276;18.650;2022-08-01T12:46:43;6.27;;;5.40;;
18308;SDS011;9280;50.276;18.650;2022-08-01T12:49:29;8.97;;;6.03;;
18308;SDS011;9280;50.276;18.650;2022-08-01T12:52:16;10.77;;;4.70;;
18308;SDS011;9280;50.276;18.650;2022-08-01T12:55:08;6.33;;;4.83;;
18308;SDS011;9280;50.276;18.650;2022-08-01T12:58:05;6.27;;;4.13;;
18308;SDS011;9280;50.276;18.650;2022-08-01T13:01:02;8.20;;;4.43;;
18308;SDS011;9280;50.276;18.650;2022-08-01T13:03:56;6.27;;;3.87;;
18308;SDS011;9280;50.276;18.650;2022-08-01T13:06:43;13.00;;;4.63;;
18308;SDS011;9280;50.276;18.650;2022-08-01T13:09:29;7.47;;;4.23;;
18308;SDS011;9280;50.276;18.650;2022-08-01T13:12:16;9.03;;;4.10;;
18308;SDS011;9280;50.276;18.650;2022-08-01T13:15:16;7.00;;;4.10;;
18308;SDS011;9280;50.276;18.650;2022-08-01T13:18:25;6.53;;;4.50;;
18308;SDS011;9280;50.276;18.650;2022-08-01T13:21:12;11.80;;;4.73;;
18308;SDS011;9280;50.276;18.650;2022-08-01T13:24:00;7.17;;;4.73;;
18308;SDS011;9280;50.276;18.650;2022-08-01T13:26:48;6.87;;;4.53;;
18308;SDS011;9280;50.276;18.650;2022-08-01T13:29:36;49.47;;;7.03;;
18308;SDS011;9280;50.276;18.650;2022-08-01T13:32:25;25.30;;;6.23;;
18308;SDS011;9280;50.276;18.650;2022-08-01T13:35:13;11.20;;;4.90;;
18308;SDS011;9280;50.276;18.650;2022-08-01T13:37:59;18.03;;;6.20;;
18308;SDS011;9280;50.276;18.650;2022-08-01T13:40:45;14.50;;;5.20;;
18308;SDS011;9280;50.276;18.650;2022-08-01T13:43:31;4.77;;;3.90;;
18308;SDS011;9280;50.276;18.650;2022-08-01T13:46:18;5.03;;;4.07;;
18308;SDS011;9280;50.276;18.650;2022-08-01T13:49:05;7.00;;;4.60;;
18308;SDS011;9280;50.276;18.650;2022-08-01T13:51:53;4.57;;;4.07;;
18308;SDS011;9280;50.276;18.650;2022-08-01T13:54:39;4.50;;;4.10;;
18308;SDS011;9280;50.276;18.650;2022-08-01T13:57:25;6.27;;;4.20;;
18308;SDS011;9280;50.276;18.650;2022-08-01T14:00:12;4.37;;;3.60;;
18308;SDS011;9280;50.276;18.650;2022-08-01T14:02:59;7.30;;;4.03;;
18308;SDS011;9280;50.276;18.650;2022-08-01T14:05:45;3.47;;;3.10;;
18308;SDS011;9280;50.276;18.650;2022-08-01T14:08:33;5.00;;;3.70;;
18308;SDS011;9280;50.276;18.650;2022-08-01T14:11:19;4.53;;;4.13;;
18308;SDS011;9280;50.276;18.650;2022-08-01T14:14:04;6.07;;;3.97;;
18308;SDS011;9280;50.276;18.650;2022-08-01T14:16:51;7.97;;;3.77;;
18308;SDS011;9280;50.276;18.650;2022-08-01T14:19:37;7.30;;;3.30;;
18308;SDS011;9280;50.276;18.650;2022-08-01T14:22:23;5.50;;;3.37;;
18308;SDS011;9280;50.276;18.650;2022-08-01T14:25:11;4.73;;;3.50;;
18308;SDS011;9280;50.276;18.650;2022-08-01T14:27:57;4.13;;;3.73;;
18308;SDS011;9280;50.276;18.650;2022-08-01T14:30:43;5.90;;;3.60;;
18308;SDS011;9280;50.276;18.650;2022-08-01T14:33:29;8.13;;;4.10;;
18308;SDS011;9280;50.276;18.650;2022-08-01T14:36:15;7.17;;;4.30;;
18308;SDS011;9280;50.276;18.650;2022-08-01T14:39:01;5.27;;;4.23;;
18308;SDS011;9280;50.276;18.650;2022-08-01T14:41:49;4.33;;;3.93;;
18308;SDS011;9280;50.276;18.650;2022-08-01T14:44:35;8.07;;;4.07;;
18308;SDS011;9280;50.276;18.650;2022-08-01T14:47:21;4.77;;;3.63;;
18308;SDS011;9280;50.276;18.650;2022-08-01T14:50:09;10.70;;;4.27;;
18308;SDS011;9280;50.276;18.650;2022-08-01T14:52:56;4.57;;;4.17;;
18308;SDS011;9280;50.276;18.650;2022-08-01T14:55:42;6.00;;;4.57;;
18308;SDS011;9280;50.276;18.650;2022-08-01T14:58:30;16.73;;;4.50;;
18308;SDS011;9280;50.276;18.650;2022-08-01T15:01:16;5.50;;;4.20;;
18308;SDS011;9280;50.276;18.650;2022-08-01T15:04:02;5.40;;;4.60;;
18308;SDS011;9280;50.276;18.650;2022-08-01T15:06:48;6.57;;;3.93;;
18308;SDS011;9280;50.276;18.650;2022-08-01T15:09:34;4.90;;;4.43;;
18308;SDS011;9280;50.276;18.650;2022-08-01T15:12:20;6.20;;;3.90;;
18308;SDS011;9280;50.276;18.650;2022-08-01T15:15:08;4.23;;;3.83;;
18308;SDS011;9280;50.276;18.650;2022-08-01T15:17:54;4.63;;;4.23;;
18308;SDS011;9280;50.276;18.650;2022-08-01T15:20:40;6.03;;;4.40;;
18308;SDS011;9280;50.276;18.650;2022-08-01T15:23:27;7.33;;;4.40;;
18308;SDS011;9280;50.276;18.650;2022-08-01T15:26:13;6.63;;;4.20;;
18308;SDS011;9280;50.276;18.650;2022-08-01T15:28:59;7.20;;;4.40;;
18308;SDS011;9280;50.276;18.650;2022-08-01T15:31:47;8.03;;;3.90;;
18308;SDS011;9280;50.276;18.650;2022-08-01T15:34:33;6.87;;;4.47;;
18308;SDS011;9280;50.276;18.650;2022-08-01T15:37:20;4.50;;;3.67;;
18308;SDS011;9280;50.276;18.650;2022-08-01T15:40:07;6.97;;;3.93;;
18308;SDS011;9280;50.276;18.650;2022-08-01T15:42:54;4.67;;;3.90;;
18308;SDS011;9280;50.276;18.650;2022-08-01T15:45:39;4.73;;;3.20;;
18308;SDS011;9280;50.276;18.650;2022-08-01T15:48:27;7.37;;;3.77;;
18308;SDS011;9280;50.276;18.650;2022-08-01T15:51:13;3.70;;;3.40;;
18308;SDS011;9280;50.276;18.650;2022-08-01T15:53:59;5.30;;;3.50;;
18308;SDS011;9280;50.276;18.650;2022-08-01T15:56:46;3.70;;;3.40;;
18308;SDS011;9280;50.276;18.650;2022-08-01T15:59:32;6.30;;;3.73;;
18308;SDS011;9280;50.276;18.650;2022-08-01T16:02:18;4.30;;;3.90;;
18308;SDS011;9280;50.276;18.650;2022-08-01T16:05:07;9.87;;;4.33;;
18308;SDS011;9280;50.276;18.650;2022-08-01T16:07:53;5.30;;;4.17;;
18308;SDS011;9280;50.276;18.650;2022-08-01T16:10:40;7.50;;;4.17;;
18308;SDS011;9280;50.276;18.650;2022-08-01T16:13:26;8.33;;;4.10;;
18308;SDS011;9280;50.276;18.650;2022-08-01T16:16:12;4.77;;;4.10;;
18308;SDS011;9280;50.276;18.650;2022-08-01T16:18:59;4.40;;;4.00;;
18308;SDS011;9280;50.276;18.650;2022-08-01T16:21:47;6.00;;;4.43;;
18308;SDS011;9280;50.276;18.650;2022-08-01T16:24:34;5.03;;;4.10;;
18308;SDS011;9280;50.276;18.650;2022-08-01T16:27:20;5.37;;;3.97;;
18308;SDS011;9280;50.276;18.650;2022-08-01T16:30:06;6.03;;;3.70;;
18308;SDS011;9280;50.276;18.650;2022-08-01T16:32:53;4.30;;;3.80;;
18308;SDS011;9280;50.276;18.650;2022-08-01T16:35:40;4.97;;;4.20;;
18308;SDS011;9280;50.276;18.650;2022-08-01T16:38:29;4.60;;;4.20;;
18308;SDS011;9280;50.276;18.650;2022-08-01T16:41:15;4.10;;;3.80;;
18308;SDS011;9280;50.276;18.650;2022-08-01T16:44:00;5.73;;;4.33;;
18308;SDS011;9280;50.276;18.650;2022-08-01T16:46:47;5.07;;;4.00;;
18308;SDS011;9280;50.276;18.650;2022-08-01T16:49:33;4.80;;;3.90;;
18308;SDS011;9280;50.276;18.650;2022-08-01T16:52:19;4.53;;;4.07;;
18308;SDS011;9280;50.276;18.650;2022-08-01T16:55:09;5.37;;;3.57;;